Twin Oaks, Missouri
Current Conditions -  °F | °C
As of 7:54 AM on Saturday 25 Oct 2014 (Local Time) from KSUS Reporting Station
Light Fog Light Fog  
Wind Chill: 52°   Ceiling: Unl
Heat Index: 52°   Visibility: 4mi
Dew Point: 52°   Wind: 0mph
Humidity: 100%   Direction: NA
Pressure: 30.03"   Gusts: NA
Location:  38.5691°N, 90.5462°W
Report Text: KSUS 251254Z 00000KT 4SM R08R/0800V1400FT MIFG CLR 11/11 A3003 RMK AO2 SLP168 T01110111
Loading
Personal Weather Stations






























Interactive Weather Map
Tropical Storm Tracking
New forecast layout! Learn more

10-Day Weather Forecast

Advertisements
Track Severe Weather on mobile